createdAt,value
2018-04-27T00:00:37.046Z,6.90
2018-04-27T00:03:04.742Z,6.80
2018-04-27T00:05:33.001Z,6.90
2018-04-27T00:08:00.577Z,6.80
2018-04-27T00:10:28.867Z,7.20
2018-04-27T00:12:57.129Z,7.30
2018-04-27T00:15:30.530Z,7.20
2018-04-27T00:17:57.983Z,7.20
2018-04-27T00:20:27.129Z,7.10
2018-04-27T00:22:54.591Z,7.10
2018-04-27T00:25:22.116Z,7.00
2018-04-27T00:27:50.396Z,6.80
2018-04-27T00:30:17.855Z,6.70
2018-04-27T00:32:45.949Z,6.70
2018-04-27T00:35:13.379Z,6.70
2018-04-27T00:37:41.609Z,6.60
2018-04-27T00:40:09.098Z,6.60
2018-04-27T00:42:36.541Z,6.60
2018-04-27T00:45:05.524Z,6.60
2018-04-27T00:47:32.986Z,6.60
2018-04-27T00:50:00.435Z,6.60
2018-04-27T00:52:27.929Z,6.50
2018-04-27T00:54:55.389Z,6.50
2018-04-27T00:57:22.861Z,6.40
2018-04-27T00:59:50.331Z,6.40
2018-04-27T01:02:19.259Z,6.40
2018-04-27T01:04:46.760Z,6.40
2018-04-27T01:07:15.000Z,6.40
2018-04-27T01:09:43.383Z,6.40
2018-04-27T01:12:10.869Z,6.50
2018-04-27T01:14:39.083Z,6.70
2018-04-27T01:17:06.579Z,6.70
2018-04-27T01:19:34.042Z,6.70
2018-04-27T01:22:02.414Z,6.80
2018-04-27T01:24:29.864Z,6.80
2018-04-27T01:26:58.118Z,6.60
2018-04-27T01:29:25.570Z,6.50
2018-04-27T01:31:59.909Z,6.50
2018-04-27T01:34:27.812Z,6.60
2018-04-27T01:36:55.282Z,6.70
2018-04-27T01:39:22.758Z,6.60
2018-04-27T01:41:50.218Z,6.50
2018-04-27T01:44:17.699Z,6.60
2018-04-27T01:46:45.161Z,6.50
2018-04-27T01:49:12.640Z,6.40
2018-04-27T01:51:41.031Z,6.20
2018-04-27T01:54:09.245Z,6.10
2018-04-27T01:56:36.725Z,6.00
2018-04-27T01:59:04.339Z,6.00
2018-04-27T02:01:31.785Z,5.90
2018-04-27T02:03:59.256Z,5.90
2018-04-27T02:06:26.751Z,5.90
2018-04-27T02:08:55.157Z,5.80
2018-04-27T02:11:22.717Z,5.80
2018-04-27T02:13:50.540Z,5.80
2018-04-27T02:16:18.026Z,5.80
2018-04-27T02:18:45.481Z,5.80
2018-04-27T02:21:12.967Z,5.80
2018-04-27T02:23:41.171Z,5.70
2018-04-27T02:26:08.679Z,5.70
2018-04-27T02:28:36.154Z,5.60
2018-04-27T02:31:03.610Z,5.60
2018-04-27T02:33:31.220Z,5.60
2018-04-27T02:35:58.698Z,5.50
2018-04-27T02:38:26.179Z,5.50
2018-04-27T02:40:53.662Z,5.40
2018-04-27T02:43:22.816Z,5.40
2018-04-27T02:45:50.286Z,5.40
2018-04-27T02:48:17.854Z,5.30
2018-04-27T02:50:45.360Z,5.30
2018-04-27T02:53:12.985Z,5.30
2018-04-27T02:55:40.420Z,5.30
2018-04-27T02:58:07.875Z,5.20
2018-04-27T03:00:36.297Z,5.20
2018-04-27T03:03:03.776Z,5.20
2018-04-27T03:05:31.273Z,5.20
2018-04-27T03:07:58.784Z,5.20
2018-04-27T03:10:26.249Z,5.20
2018-04-27T03:12:53.731Z,5.20
2018-04-27T03:15:21.190Z,5.10
2018-04-27T03:17:51.889Z,5.10
2018-04-27T03:20:20.801Z,4.90
2018-04-27T03:22:48.408Z,4.90
2018-04-27T03:25:15.859Z,4.90
2018-04-27T03:27:43.369Z,4.80
2018-04-27T03:30:10.820Z,4.80
2018-04-27T03:32:39.740Z,4.80
2018-04-27T03:35:07.222Z,4.80
2018-04-27T03:37:35.457Z,4.80
2018-04-27T03:40:03.853Z,4.80
2018-04-27T03:42:31.320Z,4.70
2018-04-27T03:44:58.799Z,4.70
2018-04-27T03:47:27.036Z,4.70
2018-04-27T03:49:54.540Z,4.70
2018-04-27T03:52:23.616Z,4.70
2018-04-27T03:54:51.109Z,4.70
2018-04-27T03:57:18.820Z,4.70
2018-04-27T03:59:58.159Z,4.70
2018-04-27T04:02:37.522Z,4.70
2018-04-27T04:05:16.807Z,4.70
2018-04-27T04:07:44.271Z,4.70
2018-04-27T04:10:13.440Z,4.60
2018-04-27T04:12:40.916Z,4.60
2018-04-27T04:15:08.374Z,4.60
2018-04-27T04:17:35.863Z,4.60
2018-04-27T04:20:03.308Z,4.60
2018-04-27T04:22:30.770Z,4.70
2018-04-27T04:24:58.296Z,4.70
2018-04-27T04:27:26.218Z,4.80
2018-04-27T04:29:53.720Z,4.80
2018-04-27T04:32:21.197Z,4.80
2018-04-27T04:34:48.695Z,4.90
2018-04-27T04:37:16.981Z,5.10
2018-04-27T04:39:44.444Z,5.10
2018-04-27T04:42:11.962Z,5.20
2018-04-27T04:44:40.345Z,5.30
2018-04-27T04:47:07.795Z,5.50
2018-04-27T04:49:35.303Z,5.80
2018-04-27T04:52:02.809Z,6.30
2018-04-27T04:54:30.296Z,7.10
2018-04-27T04:56:57.771Z,7.60
2018-04-27T04:59:25.225Z,8.40
2018-04-27T05:01:53.565Z,9.50
2018-04-27T05:04:21.438Z,10.40
2018-04-27T05:06:48.887Z,10.80
2018-04-27T05:09:17.144Z,10.00
2018-04-27T05:11:44.608Z,10.00
2018-04-27T05:14:13.010Z,9.50
2018-04-27T05:16:40.485Z,9.00
2018-04-27T05:19:07.985Z,8.50
2018-04-27T05:21:35.452Z,8.20
2018-04-27T05:24:02.941Z,7.90
2018-04-27T05:26:30.401Z,8.30
2018-04-27T05:28:58.016Z,9.30
2018-04-27T05:31:26.416Z,10.30
2018-04-27T05:33:54.077Z,11.20
2018-04-27T05:36:25.538Z,11.40
2018-04-27T05:38:53.000Z,11.40
2018-04-27T05:41:21.543Z,11.50
2018-04-27T05:43:49.060Z,12.00
2018-04-27T05:46:16.550Z,12.80
2018-04-27T05:48:44.037Z,13.80
2018-04-27T05:51:15.364Z,14.60
2018-04-27T05:53:42.853Z,15.30
2018-04-27T05:56:10.992Z,15.30
2018-04-27T05:58:38.496Z,15.60
2018-04-27T06:01:05.986Z,15.60
2018-04-27T06:03:45.244Z,15.80
2018-04-27T06:06:16.141Z,15.90
2018-04-27T06:08:43.633Z,15.70
2018-04-27T06:11:11.123Z,14.90
2018-04-27T06:13:38.586Z,13.80
2018-04-27T06:16:07.020Z,12.80
2018-04-27T06:18:34.473Z,12.10
2018-04-27T06:21:01.932Z,11.40
2018-04-27T06:23:29.439Z,10.90
2018-04-27T06:25:56.887Z,10.60
2018-04-27T06:28:24.350Z,10.40
2018-04-27T06:30:51.838Z,10.30
2018-04-27T06:33:19.388Z,10.30
2018-04-27T06:35:46.880Z,10.20
2018-04-27T06:38:16.042Z,10.10
2018-04-27T06:40:43.519Z,10.10
2018-04-27T06:43:11.732Z,9.90
2018-04-27T06:45:39.723Z,9.90
2018-04-27T06:48:07.205Z,10.00
2018-04-27T06:50:34.685Z,10.10
2018-04-27T06:53:07.636Z,10.20
2018-04-27T06:55:35.094Z,10.20
2018-04-27T06:58:02.646Z,10.30
2018-04-27T07:00:30.114Z,10.40
2018-04-27T07:02:57.655Z,10.50
2018-04-27T07:05:25.399Z,10.60
2018-04-27T07:07:54.550Z,10.80
2018-04-27T07:10:22.015Z,10.80
2018-04-27T07:12:49.489Z,10.90
2018-04-27T07:15:17.679Z,11.00
2018-04-27T07:17:45.176Z,11.10
2018-04-27T07:20:13.410Z,11.20
2018-04-27T07:22:51.831Z,11.20
2018-04-27T07:25:19.912Z,11.30
2018-04-27T07:27:47.388Z,11.40
2018-04-27T07:30:14.875Z,11.50
2018-04-27T07:32:42.378Z,11.50
2018-04-27T07:35:10.604Z,11.70
2018-04-27T07:37:42.057Z,11.60
2018-04-27T07:40:09.520Z,11.70
2018-04-27T07:42:37.781Z,11.90
2018-04-27T07:45:05.495Z,11.90
2018-04-27T07:47:33.884Z,12.00
2018-04-27T07:50:01.349Z,12.20
2018-04-27T07:52:31.935Z,12.30
2018-04-27T07:55:00.258Z,12.70
2018-04-27T07:57:28.644Z,12.70
2018-04-27T07:59:56.128Z,12.80
2018-04-27T08:02:23.680Z,13.10
2018-04-27T08:04:51.109Z,13.30
2018-04-27T08:07:18.670Z,13.40
2018-04-27T08:09:46.068Z,13.50
2018-04-27T08:12:14.293Z,13.70
2018-04-27T08:14:41.832Z,13.70
2018-04-27T08:17:09.294Z,13.90
2018-04-27T08:19:37.411Z,14.10
2018-04-27T08:22:04.869Z,14.20
2018-04-27T08:24:32.393Z,14.40
2018-04-27T08:26:59.820Z,14.50
2018-04-27T08:29:28.674Z,14.60
2018-04-27T08:31:56.408Z,14.60
2018-04-27T08:34:23.917Z,14.70
2018-04-27T08:36:51.386Z,14.80
2018-04-27T08:39:18.843Z,14.80
2018-04-27T08:41:47.096Z,15.00
2018-04-27T08:44:14.554Z,14.90
2018-04-27T08:46:42.056Z,14.90
2018-04-27T08:49:11.157Z,14.90
2018-04-27T08:51:38.673Z,14.90
2018-04-27T08:54:06.231Z,14.90
2018-04-27T08:56:33.704Z,14.90
2018-04-27T08:59:01.185Z,15.00
2018-04-27T09:01:29.254Z,15.10
2018-04-27T09:03:56.730Z,15.20
2018-04-27T09:06:24.221Z,15.30
2018-04-27T09:08:56.097Z,15.40
2018-04-27T09:11:24.850Z,15.30
2018-04-27T09:13:52.334Z,15.30
2018-04-27T09:16:20.629Z,15.10
2018-04-27T09:18:48.097Z,15.10
2018-04-27T09:21:15.605Z,15.20
2018-04-27T09:23:48.218Z,15.20
2018-04-27T09:26:15.673Z,15.30
2018-04-27T09:28:44.003Z,15.30
2018-04-27T09:31:11.568Z,15.30
2018-04-27T09:33:39.328Z,15.40
2018-04-27T09:36:06.797Z,15.40
2018-04-27T09:38:34.302Z,15.50
2018-04-27T09:41:01.890Z,15.50
2018-04-27T09:43:29.264Z,15.50
2018-04-27T09:45:57.633Z,15.50
2018-04-27T09:48:25.129Z,15.60
2018-04-27T09:50:52.617Z,15.70
2018-04-27T09:53:20.096Z,15.80
2018-04-27T09:55:47.564Z,15.80
2018-04-27T09:58:15.050Z,15.70
2018-04-27T10:00:42.520Z,15.80
2018-04-27T10:03:10.182Z,15.80
2018-04-27T10:05:37.702Z,15.80
2018-04-27T10:08:05.692Z,15.90
2018-04-27T10:10:37.165Z,16.10
2018-04-27T10:13:04.637Z,16.20
2018-04-27T10:15:32.380Z,16.10
2018-04-27T10:18:00.575Z,16.20
2018-04-27T10:20:28.099Z,16.20
2018-04-27T10:22:55.526Z,16.20
2018-04-27T10:25:26.726Z,16.20
2018-04-27T10:27:54.184Z,16.20
2018-04-27T10:30:21.726Z,16.20
2018-04-27T10:32:50.153Z,16.20
2018-04-27T10:35:17.667Z,16.30
2018-04-27T10:37:45.104Z,16.40
2018-04-27T10:40:15.854Z,16.50
2018-04-27T10:42:44.146Z,16.70
2018-04-27T10:45:11.638Z,16.70
2018-04-27T10:47:39.705Z,16.70
2018-04-27T10:50:07.166Z,16.50
2018-04-27T10:52:34.649Z,16.60
2018-04-27T10:55:02.336Z,16.70
2018-04-27T10:57:30.644Z,16.80
2018-04-27T10:59:58.124Z,16.80
2018-04-27T11:02:25.580Z,16.90
2018-04-27T11:04:54.017Z,17.00
2018-04-27T11:07:21.560Z,17.00
2018-04-27T11:09:49.009Z,17.00
2018-04-27T11:12:19.452Z,17.00
2018-04-27T11:14:46.909Z,17.00
2018-04-27T11:17:14.371Z,17.00
2018-04-27T11:19:41.850Z,17.00
2018-04-27T11:22:09.343Z,17.10
2018-04-27T11:24:37.724Z,17.20
2018-04-27T11:27:08.952Z,17.30
2018-04-27T11:29:36.424Z,17.40
2018-04-27T11:32:03.921Z,17.40
2018-04-27T11:34:31.401Z,17.40
2018-04-27T11:36:58.860Z,17.50
2018-04-27T11:39:27.275Z,17.60
2018-04-27T11:42:02.169Z,17.50
2018-04-27T11:44:29.660Z,17.50
2018-04-27T11:46:57.926Z,17.60
2018-04-27T11:49:25.451Z,17.70
2018-04-27T11:51:52.968Z,17.80
2018-04-27T11:54:20.468Z,17.90
2018-04-27T11:56:48.765Z,18.10
2018-04-27T11:59:16.221Z,18.00
2018-04-27T12:01:43.846Z,18.00
2018-04-27T12:04:11.730Z,18.10
2018-04-27T12:06:39.208Z,18.00
2018-04-27T12:09:06.665Z,18.00
2018-04-27T12:11:37.598Z,18.10
2018-04-27T12:14:05.088Z,18.40
2018-04-27T12:16:32.555Z,18.50
2018-04-27T12:19:00.044Z,18.50
2018-04-27T12:21:27.504Z,18.50
2018-04-27T12:23:55.747Z,18.50
2018-04-27T12:26:23.227Z,18.50
2018-04-27T12:28:50.722Z,18.50
2018-04-27T12:31:18.506Z,18.40
2018-04-27T12:33:46.339Z,18.50
2018-04-27T12:36:14.857Z,18.60
2018-04-27T12:38:42.350Z,18.80
2018-04-27T12:41:09.800Z,18.90
2018-04-27T12:43:37.377Z,19.00
2018-04-27T12:46:04.860Z,19.10
2018-04-27T12:48:32.694Z,19.20
2018-04-27T12:51:00.143Z,19.20
2018-04-27T12:53:28.113Z,19.20
2018-04-27T12:55:55.948Z,19.10
2018-04-27T12:58:23.412Z,19.10
2018-04-27T13:00:50.896Z,19.10
2018-04-27T13:03:18.363Z,19.00
2018-04-27T13:05:45.835Z,19.00
2018-04-27T13:08:13.495Z,19.00
2018-04-27T13:10:41.004Z,19.20
2018-04-27T13:13:08.468Z,19.30
2018-04-27T13:15:36.883Z,19.40
2018-04-27T13:18:04.800Z,19.40
2018-04-27T13:20:32.316Z,19.40
2018-04-27T13:22:59.855Z,19.40
2018-04-27T13:25:27.316Z,19.50
2018-04-27T13:27:55.506Z,19.60
2018-04-27T13:30:22.989Z,19.60
2018-04-27T13:32:51.235Z,19.80
2018-04-27T13:35:18.712Z,19.80
2018-04-27T13:37:46.179Z,19.90
2018-04-27T13:40:13.655Z,19.90
2018-04-27T13:42:41.116Z,19.90
2018-04-27T13:45:08.600Z,19.80
2018-04-27T13:47:36.065Z,19.80
2018-04-27T13:50:04.873Z,19.90
2018-04-27T13:52:32.333Z,19.90
2018-04-27T13:55:00.644Z,20.00
2018-04-27T13:57:28.623Z,20.10
2018-04-27T13:59:56.117Z,20.10
2018-04-27T14:02:23.577Z,20.20
2018-04-27T14:04:51.034Z,20.20
2018-04-27T14:07:18.670Z,20.30
2018-04-27T14:09:46.199Z,20.30
2018-04-27T14:12:13.615Z,20.40
2018-04-27T14:14:41.079Z,20.40
2018-04-27T14:17:08.550Z,20.40
2018-04-27T14:19:36.022Z,20.40
2018-04-27T14:22:03.644Z,20.50
2018-04-27T14:24:31.689Z,20.40
2018-04-27T14:26:59.148Z,20.50
2018-04-27T14:29:33.676Z,20.40
2018-04-27T14:32:02.061Z,20.40
2018-04-27T14:34:29.557Z,20.40
2018-04-27T14:36:57.007Z,20.40
2018-04-27T14:39:24.692Z,20.50
2018-04-27T14:41:52.169Z,20.60
2018-04-27T14:59:05.756Z,20.60
2018-04-27T15:01:33.234Z,20.60
2018-04-27T15:04:06.107Z,20.60
2018-04-27T15:06:33.560Z,20.70
2018-04-27T15:09:01.027Z,20.60
2018-04-27T15:11:31.013Z,20.50
2018-04-27T15:13:59.412Z,20.50
2018-04-27T15:16:26.874Z,20.60
2018-04-27T15:18:58.802Z,20.70
2018-04-27T15:21:26.289Z,20.70
2018-04-27T15:23:54.489Z,20.70
2018-04-27T15:26:21.968Z,20.80
2018-04-27T15:28:49.513Z,20.80
2018-04-27T15:31:17.011Z,20.90
2018-04-27T15:33:44.497Z,20.80
2018-04-27T15:36:11.953Z,20.80
2018-04-27T15:38:39.421Z,20.80
2018-04-27T15:41:06.906Z,20.80
2018-04-27T15:43:34.412Z,20.90
2018-04-27T15:46:01.895Z,20.90
2018-04-27T15:48:30.140Z,20.80
2018-04-27T15:50:58.852Z,20.80
2018-04-27T15:53:26.325Z,20.80
2018-04-27T15:55:53.789Z,20.90
2018-04-27T15:58:22.974Z,21.20
2018-04-27T16:00:50.435Z,21.20
2018-04-27T16:03:21.681Z,21.40
2018-04-27T16:05:50.454Z,21.50
2018-04-27T16:08:18.930Z,21.40
2018-04-27T16:10:46.389Z,21.40
2018-04-27T16:13:15.384Z,21.20
2018-04-27T16:15:42.858Z,21.20
2018-04-27T16:18:10.308Z,21.20
2018-04-27T16:20:38.074Z,21.20
2018-04-27T16:23:05.541Z,21.30
2018-04-27T16:25:32.989Z,21.30
2018-04-27T16:28:01.114Z,21.40
2018-04-27T16:30:28.612Z,21.50
2018-04-27T16:32:56.069Z,21.50
2018-04-27T16:35:23.528Z,21.50
2018-04-27T16:37:51.390Z,21.50
2018-04-27T16:40:19.303Z,21.50
2018-04-27T16:42:46.769Z,21.40
2018-04-27T16:45:15.189Z,21.30
2018-04-27T16:47:42.656Z,21.20
2018-04-27T16:50:10.100Z,21.20
2018-04-27T16:52:37.582Z,21.30
2018-04-27T16:55:05.120Z,21.40
2018-04-27T16:57:32.578Z,21.50
2018-04-27T17:00:00.051Z,22.50
2018-04-27T17:02:29.505Z,24.10
2018-04-27T17:04:56.985Z,24.00
2018-04-27T17:07:25.286Z,22.80
2018-04-27T17:09:53.048Z,22.80
2018-04-27T17:12:20.520Z,22.20
2018-04-27T17:14:48.579Z,21.70
2018-04-27T17:17:16.077Z,21.20
2018-04-27T17:19:48.598Z,20.80
2018-04-27T17:22:16.064Z,20.70
2018-04-27T17:24:43.518Z,20.60
2018-04-27T17:27:11.176Z,20.90
2018-04-27T17:29:38.642Z,21.00
2018-04-27T17:32:06.151Z,20.90
2018-04-27T17:34:33.635Z,20.50
2018-04-27T17:37:01.176Z,20.20
2018-04-27T17:39:29.395Z,19.60
2018-04-27T17:41:57.727Z,19.40
2018-04-27T17:44:25.200Z,19.40
2018-04-27T17:46:52.678Z,19.20
2018-04-27T17:49:20.246Z,19.00
2018-04-27T17:51:48.487Z,18.70
2018-04-27T17:54:16.401Z,18.70
2018-04-27T17:56:43.900Z,18.60
2018-04-27T17:59:11.359Z,18.50
2018-04-27T18:01:38.828Z,18.70
2018-04-27T18:04:06.349Z,19.00
2018-04-27T18:06:33.823Z,18.90
2018-04-27T18:09:01.332Z,18.70
2018-04-27T18:11:29.793Z,18.50
2018-04-27T18:13:57.255Z,18.20
2018-04-27T18:16:24.712Z,17.90
2018-04-27T18:18:52.231Z,17.70
2018-04-27T18:21:19.866Z,17.50
2018-04-27T18:23:49.056Z,17.20
2018-04-27T18:26:16.570Z,17.20
2018-04-27T18:28:44.043Z,17.10
2018-04-27T18:31:11.743Z,17.00
2018-04-27T18:33:39.991Z,16.80
2018-04-27T18:36:08.482Z,16.70
2018-04-27T18:38:36.731Z,16.80
2018-04-27T18:41:04.230Z,16.80
2018-04-27T18:43:32.075Z,16.70
2018-04-27T18:46:03.230Z,16.50
2018-04-27T18:48:34.147Z,16.20
2018-04-27T18:51:02.330Z,16.20
2018-04-27T18:53:39.845Z,16.20
2018-04-27T18:56:08.148Z,16.20
2018-04-27T18:58:35.917Z,16.20
2018-04-27T19:01:03.388Z,16.10
2018-04-27T19:03:30.916Z,16.10
2018-04-27T19:06:06.852Z,15.90
2018-04-27T19:08:35.935Z,15.40
2018-04-27T19:11:03.439Z,15.30
2018-04-27T19:13:30.952Z,15.20
2018-04-27T19:16:01.078Z,15.20
2018-04-27T19:18:28.731Z,15.20
2018-04-27T19:20:56.205Z,15.30
2018-04-27T19:23:26.349Z,15.20
2018-04-27T19:25:54.574Z,15.20
2018-04-27T19:28:22.111Z,15.20
2018-04-27T19:30:49.618Z,15.30
2018-04-27T19:33:17.140Z,15.30
2018-04-27T19:35:44.641Z,15.30
2018-04-27T19:38:12.928Z,15.40
2018-04-27T19:40:40.408Z,15.30
2018-04-27T19:43:08.637Z,15.40
2018-04-27T19:45:36.882Z,15.40
2018-04-27T19:48:04.326Z,15.40
2018-04-27T19:50:31.813Z,15.40
2018-04-27T19:53:04.685Z,15.30
2018-04-27T19:55:33.066Z,15.20
2018-04-27T19:58:02.082Z,15.10
2018-04-27T20:00:32.437Z,15.10
2018-04-27T20:02:59.925Z,15.00
2018-04-27T20:05:27.386Z,14.90
2018-04-27T20:07:55.598Z,14.80
2018-04-27T20:10:40.258Z,14.80
2018-04-27T20:13:13.460Z,14.80
2018-04-27T20:15:43.703Z,14.80
2018-04-27T20:18:12.082Z,14.80
2018-04-27T20:20:42.314Z,14.70
2018-04-27T20:23:12.224Z,14.80
2018-04-27T20:25:39.685Z,14.70
2018-04-27T20:28:08.422Z,14.40
2018-04-27T20:30:35.921Z,14.40
2018-04-27T20:33:03.394Z,14.20
2018-04-27T20:35:30.880Z,14.10
2018-04-27T20:38:04.874Z,14.00
2018-04-27T20:40:33.688Z,14.00
2018-04-27T20:43:07.043Z,14.00
2018-04-27T20:45:35.941Z,14.00
2018-04-27T20:48:03.397Z,13.90
2018-04-27T20:50:31.624Z,13.90
2018-04-27T20:53:02.121Z,13.80
2018-04-27T20:55:30.942Z,13.80
2018-04-27T20:57:58.434Z,13.90
2018-04-27T21:00:29.436Z,13.90
2018-04-27T21:02:56.906Z,13.80
2018-04-27T21:05:24.368Z,14.00
2018-04-27T21:07:52.695Z,14.00
2018-04-27T21:10:20.238Z,14.10
2018-04-27T21:12:47.767Z,14.10
2018-04-27T21:15:15.262Z,14.00
2018-04-27T21:17:44.521Z,14.00
2018-04-27T21:20:13.453Z,13.90
2018-04-27T21:22:40.932Z,13.90
2018-04-27T21:25:09.219Z,13.70
2018-04-27T21:27:40.269Z,13.60
2018-04-27T21:30:09.507Z,13.50
2018-04-27T21:32:37.857Z,13.50
2018-04-27T21:35:05.316Z,13.50
2018-04-27T21:37:33.568Z,13.70
2018-04-27T21:40:01.925Z,13.70
2018-04-27T21:42:29.425Z,13.80
2018-04-27T21:44:56.877Z,13.80
2018-04-27T21:47:29.827Z,13.80
2018-04-27T21:49:57.319Z,13.80
2018-04-27T21:52:30.680Z,13.70
2018-04-27T21:55:02.387Z,13.70
2018-04-27T21:57:32.694Z,13.60
2018-04-27T22:00:17.810Z,13.50
2018-04-27T22:02:49.125Z,13.60
2018-04-27T22:08:14.112Z,13.40
2018-04-27T22:10:46.397Z,13.40
2018-04-27T22:13:16.796Z,13.40
2018-04-27T22:15:44.373Z,13.40
2018-04-27T22:18:12.140Z,13.40
2018-04-27T22:20:39.637Z,13.40
2018-04-27T22:23:07.125Z,13.50
2018-04-27T22:25:42.344Z,13.50
2018-04-27T22:28:10.606Z,13.50
2018-04-27T22:30:38.095Z,13.50
2018-04-27T22:36:04.272Z,13.50
2018-04-27T22:38:36.589Z,13.50
2018-04-27T22:41:08.279Z,13.40
2018-04-27T22:43:35.762Z,13.40
2018-04-27T22:46:09.793Z,13.20
2018-04-27T22:48:42.943Z,13.20
2018-04-27T22:54:06.482Z,13.10
2018-04-27T22:56:48.468Z,13.10
2018-04-27T22:59:17.003Z,13.10
2018-04-27T23:01:44.457Z,13.10
2018-04-27T23:04:11.933Z,13.10
2018-04-27T23:06:39.393Z,13.00
2018-04-27T23:09:07.077Z,13.00
2018-04-27T23:11:35.385Z,13.10
2018-04-27T23:14:09.292Z,13.00
2018-04-27T23:16:36.778Z,13.00
2018-04-27T23:19:07.231Z,13.10
2018-04-27T23:21:37.821Z,13.20
2018-04-27T23:24:07.609Z,13.20
2018-04-27T23:26:35.081Z,13.30
2018-04-27T23:29:02.555Z,13.40
2018-04-27T23:31:30.058Z,13.50
2018-04-27T23:33:58.301Z,13.60
2018-04-27T23:36:26.679Z,13.50
2018-04-27T23:38:54.170Z,13.50
2018-04-27T23:41:26.429Z,13.30
2018-04-27T23:43:53.883Z,13.30
2018-04-27T23:46:22.314Z,13.30
2018-04-27T23:48:50.719Z,13.20
2018-04-27T23:51:18.199Z,13.20
2018-04-27T23:53:45.860Z,13.10
2018-04-27T23:56:13.387Z,13.00
2018-04-27T23:58:52.560Z,13.00
